sensor_id;sensor_type;location;lat;lon;timestamp;P1;durP1;ratioP1;P2;durP2;ratioP2
53044;SDS011;38930;52.766;6.884;2022-08-19T00:01:30;4.22;;;3.83;;
53044;SDS011;38930;52.766;6.884;2022-08-19T00:04:00;7.20;;;3.97;;
53044;SDS011;38930;52.766;6.884;2022-08-19T00:06:28;4.70;;;3.90;;
53044;SDS011;38930;52.766;6.884;2022-08-19T00:08:54;5.75;;;4.10;;
53044;SDS011;38930;52.766;6.884;2022-08-19T00:11:21;6.45;;;4.32;;
53044;SDS011;38930;52.766;6.884;2022-08-19T00:13:46;4.90;;;3.90;;
53044;SDS011;38930;52.766;6.884;2022-08-19T00:16:15;4.88;;;3.90;;
53044;SDS011;38930;52.766;6.884;2022-08-19T00:18:44;4.38;;;3.97;;
53044;SDS011;38930;52.766;6.884;2022-08-19T00:21:10;4.63;;;4.23;;
53044;SDS011;38930;52.766;6.884;2022-08-19T00:23:35;6.20;;;4.10;;
53044;SDS011;38930;52.766;6.884;2022-08-19T00:26:05;4.43;;;4.03;;
53044;SDS011;38930;52.766;6.884;2022-08-19T00:28:31;7.07;;;4.07;;
53044;SDS011;38930;52.766;6.884;2022-08-19T00:30:58;5.15;;;4.43;;
53044;SDS011;38930;52.766;6.884;2022-08-19T00:33:25;5.50;;;5.00;;
53044;SDS011;38930;52.766;6.884;2022-08-19T00:35:51;5.50;;;5.00;;
53044;SDS011;38930;52.766;6.884;2022-08-19T00:38:16;6.22;;;5.53;;
53044;SDS011;38930;52.766;6.884;2022-08-19T00:40:42;5.77;;;5.17;;
53044;SDS011;38930;52.766;6.884;2022-08-19T00:43:11;6.60;;;5.40;;
53044;SDS011;38930;52.766;6.884;2022-08-19T00:45:39;5.75;;;5.25;;
53044;SDS011;38930;52.766;6.884;2022-08-19T00:48:07;7.45;;;6.18;;
53044;SDS011;38930;52.766;6.884;2022-08-19T00:50:33;7.13;;;6.15;;
53044;SDS011;38930;52.766;6.884;2022-08-19T00:53:00;7.15;;;6.30;;
53044;SDS011;38930;52.766;6.884;2022-08-19T00:55:29;8.57;;;6.70;;
53044;SDS011;38930;52.766;6.884;2022-08-19T00:57:59;8.23;;;6.93;;
53044;SDS011;38930;52.766;6.884;2022-08-19T01:00:32;8.15;;;7.18;;
53044;SDS011;38930;52.766;6.884;2022-08-19T01:03:02;8.65;;;7.20;;
53044;SDS011;38930;52.766;6.884;2022-08-19T01:05:31;9.65;;;8.18;;
53044;SDS011;38930;52.766;6.884;2022-08-19T01:07:58;10.73;;;8.13;;
53044;SDS011;38930;52.766;6.884;2022-08-19T01:10:27;10.27;;;9.00;;
53044;SDS011;38930;52.766;6.884;2022-08-19T01:12:56;10.35;;;9.00;;
53044;SDS011;38930;52.766;6.884;2022-08-19T01:15:26;11.32;;;10.13;;
53044;SDS011;38930;52.766;6.884;2022-08-19T01:17:56;11.25;;;9.45;;
53044;SDS011;38930;52.766;6.884;2022-08-19T01:20:24;11.05;;;9.95;;
53044;SDS011;38930;52.766;6.884;2022-08-19T01:22:54;10.73;;;9.57;;
53044;SDS011;38930;52.766;6.884;2022-08-19T01:25:22;11.77;;;10.57;;
53044;SDS011;38930;52.766;6.884;2022-08-19T01:27:54;10.55;;;9.55;;
53044;SDS011;38930;52.766;6.884;2022-08-19T01:30:22;11.40;;;10.00;;
53044;SDS011;38930;52.766;6.884;2022-08-19T01:32:50;10.98;;;9.88;;
53044;SDS011;38930;52.766;6.884;2022-08-19T01:35:17;11.27;;;9.30;;
53044;SDS011;38930;52.766;6.884;2022-08-19T01:37:44;10.87;;;9.10;;
53044;SDS011;38930;52.766;6.884;2022-08-19T01:40:11;10.63;;;9.55;;
53044;SDS011;38930;52.766;6.884;2022-08-19T01:42:37;10.55;;;9.55;;
53044;SDS011;38930;52.766;6.884;2022-08-19T01:45:03;9.60;;;8.70;;
53044;SDS011;38930;52.766;6.884;2022-08-19T01:47:31;10.40;;;9.00;;
53044;SDS011;38930;52.766;6.884;2022-08-19T01:49:57;9.53;;;8.63;;
53044;SDS011;38930;52.766;6.884;2022-08-19T01:52:23;9.95;;;8.95;;
53044;SDS011;38930;52.766;6.884;2022-08-19T01:54:48;11.53;;;9.97;;
53044;SDS011;38930;52.766;6.884;2022-08-19T01:57:14;10.93;;;9.83;;
53044;SDS011;38930;52.766;6.884;2022-08-19T01:59:41;11.23;;;9.27;;
53044;SDS011;38930;52.766;6.884;2022-08-19T02:02:09;10.38;;;9.30;;
53044;SDS011;38930;52.766;6.884;2022-08-19T02:04:35;13.30;;;9.93;;
53044;SDS011;38930;52.766;6.884;2022-08-19T02:07:03;11.63;;;9.52;;
53044;SDS011;38930;52.766;6.884;2022-08-19T02:09:30;11.33;;;10.23;;
53044;SDS011;38930;52.766;6.884;2022-08-19T02:11:56;11.88;;;10.57;;
53044;SDS011;38930;52.766;6.884;2022-08-19T02:14:22;10.53;;;9.30;;
53044;SDS011;38930;52.766;6.884;2022-08-19T02:16:48;11.90;;;9.67;;
53044;SDS011;38930;52.766;6.884;2022-08-19T02:19:13;10.87;;;9.87;;
53044;SDS011;38930;52.766;6.884;2022-08-19T02:21:39;10.23;;;9.23;;
53044;SDS011;38930;52.766;6.884;2022-08-19T02:24:04;11.23;;;10.13;;
53044;SDS011;38930;52.766;6.884;2022-08-19T02:26:31;11.37;;;10.23;;
53044;SDS011;38930;52.766;6.884;2022-08-19T02:31:23;11.60;;;10.40;;
53044;SDS011;38930;52.766;6.884;2022-08-19T02:33:50;12.18;;;10.50;;
53044;SDS011;38930;52.766;6.884;2022-08-19T02:36:17;12.13;;;10.60;;
53044;SDS011;38930;52.766;6.884;2022-08-19T02:38:43;12.27;;;10.20;;
53044;SDS011;38930;52.766;6.884;2022-08-19T02:41:29;11.38;;;10.27;;
53044;SDS011;38930;52.766;6.884;2022-08-19T02:43:58;10.93;;;9.93;;
53044;SDS011;38930;52.766;6.884;2022-08-19T02:46:26;11.10;;;9.90;;
53044;SDS011;38930;52.766;6.884;2022-08-19T02:48:54;12.05;;;10.20;;
53044;SDS011;38930;52.766;6.884;2022-08-19T02:51:23;9.88;;;8.88;;
53044;SDS011;38930;52.766;6.884;2022-08-19T02:53:56;10.90;;;9.70;;
53044;SDS011;38930;52.766;6.884;2022-08-19T02:56:22;12.67;;;9.50;;
53044;SDS011;38930;52.766;6.884;2022-08-19T02:58:49;10.63;;;9.52;;
53044;SDS011;38930;52.766;6.884;2022-08-19T03:01:22;10.63;;;9.47;;
53044;SDS011;38930;52.766;6.884;2022-08-19T03:03:51;10.27;;;9.27;;
53044;SDS011;38930;52.766;6.884;2022-08-19T03:06:17;10.25;;;9.25;;
53044;SDS011;38930;52.766;6.884;2022-08-19T03:08:44;9.77;;;8.77;;
53044;SDS011;38930;52.766;6.884;2022-08-19T03:11:15;9.77;;;8.77;;
53044;SDS011;38930;52.766;6.884;2022-08-19T03:13:42;9.18;;;8.18;;
53044;SDS011;38930;52.766;6.884;2022-08-19T03:16:08;9.30;;;8.40;;
53044;SDS011;38930;52.766;6.884;2022-08-19T03:18:34;10.35;;;8.45;;
53044;SDS011;38930;52.766;6.884;2022-08-19T03:21:00;9.40;;;8.47;;
53044;SDS011;38930;52.766;6.884;2022-08-19T03:23:26;9.50;;;8.30;;
53044;SDS011;38930;52.766;6.884;2022-08-19T03:25:52;9.30;;;8.30;;
53044;SDS011;38930;52.766;6.884;2022-08-19T03:28:19;9.07;;;8.07;;
53044;SDS011;38930;52.766;6.884;2022-08-19T03:33:24;9.85;;;8.60;;
53044;SDS011;38930;52.766;6.884;2022-08-19T03:36:07;10.02;;;8.45;;
53044;SDS011;38930;52.766;6.884;2022-08-19T03:38:37;8.75;;;7.93;;
53044;SDS011;38930;52.766;6.884;2022-08-19T03:41:06;9.32;;;8.30;;
53044;SDS011;38930;52.766;6.884;2022-08-19T03:43:34;9.32;;;8.43;;
53044;SDS011;38930;52.766;6.884;2022-08-19T03:46:05;9.85;;;8.85;;
53044;SDS011;38930;52.766;6.884;2022-08-19T03:48:33;9.73;;;8.73;;
53044;SDS011;38930;52.766;6.884;2022-08-19T03:51:00;10.73;;;9.63;;
53044;SDS011;38930;52.766;6.884;2022-08-19T03:53:28;11.02;;;9.73;;
53044;SDS011;38930;52.766;6.884;2022-08-19T03:55:55;10.60;;;9.50;;
53044;SDS011;38930;52.766;6.884;2022-08-19T03:58:23;9.70;;;8.48;;
53044;SDS011;38930;52.766;6.884;2022-08-19T04:00:48;10.73;;;9.50;;
53044;SDS011;38930;52.766;6.884;2022-08-19T04:03:14;11.13;;;9.93;;
53044;SDS011;38930;52.766;6.884;2022-08-19T04:05:40;10.55;;;9.48;;
53044;SDS011;38930;52.766;6.884;2022-08-19T04:08:06;10.93;;;9.30;;
53044;SDS011;38930;52.766;6.884;2022-08-19T04:10:35;12.23;;;9.50;;
53044;SDS011;38930;52.766;6.884;2022-08-19T04:13:02;10.35;;;8.85;;
53044;SDS011;38930;52.766;6.884;2022-08-19T04:15:30;9.68;;;8.68;;
53044;SDS011;38930;52.766;6.884;2022-08-19T04:18:00;9.85;;;8.73;;
53044;SDS011;38930;52.766;6.884;2022-08-19T04:20:26;9.83;;;8.33;;
53044;SDS011;38930;52.766;6.884;2022-08-19T04:22:52;8.82;;;8.02;;
53044;SDS011;38930;52.766;6.884;2022-08-19T04:25:17;11.80;;;8.43;;
53044;SDS011;38930;52.766;6.884;2022-08-19T04:27:43;12.23;;;8.43;;
53044;SDS011;38930;52.766;6.884;2022-08-19T04:30:11;8.95;;;7.85;;
53044;SDS011;38930;52.766;6.884;2022-08-19T04:32:38;9.52;;;7.65;;
53044;SDS011;38930;52.766;6.884;2022-08-19T04:35:04;9.13;;;8.20;;
53044;SDS011;38930;52.766;6.884;2022-08-19T04:37:30;10.37;;;8.30;;
53044;SDS011;38930;52.766;6.884;2022-08-19T04:39:58;8.50;;;7.78;;
53044;SDS011;38930;52.766;6.884;2022-08-19T04:42:43;9.60;;;8.65;;
53044;SDS011;38930;52.766;6.884;2022-08-19T04:45:12;9.85;;;8.82;;
53044;SDS011;38930;52.766;6.884;2022-08-19T04:47:40;9.93;;;8.85;;
53044;SDS011;38930;52.766;6.884;2022-08-19T04:50:07;12.15;;;8.93;;
53044;SDS011;38930;52.766;6.884;2022-08-19T04:52:36;10.02;;;9.02;;
53044;SDS011;38930;52.766;6.884;2022-08-19T04:55:09;10.93;;;9.57;;
53044;SDS011;38930;52.766;6.884;2022-08-19T04:57:36;12.48;;;9.18;;
53044;SDS011;38930;52.766;6.884;2022-08-19T05:00:05;10.65;;;9.60;;
53044;SDS011;38930;52.766;6.884;2022-08-19T05:02:32;11.90;;;9.75;;
53044;SDS011;38930;52.766;6.884;2022-08-19T05:04:58;10.90;;;9.80;;
53044;SDS011;38930;52.766;6.884;2022-08-19T05:07:25;10.57;;;9.55;;
53044;SDS011;38930;52.766;6.884;2022-08-19T05:09:54;12.60;;;9.60;;
53044;SDS011;38930;52.766;6.884;2022-08-19T05:12:20;12.02;;;9.60;;
53044;SDS011;38930;52.766;6.884;2022-08-19T05:14:49;11.07;;;9.93;;
53044;SDS011;38930;52.766;6.884;2022-08-19T05:17:16;11.93;;;9.93;;
53044;SDS011;38930;52.766;6.884;2022-08-19T05:19:42;11.47;;;10.27;;
53044;SDS011;38930;52.766;6.884;2022-08-19T05:22:26;12.30;;;10.00;;
53044;SDS011;38930;52.766;6.884;2022-08-19T05:25:01;10.82;;;9.73;;
53044;SDS011;38930;52.766;6.884;2022-08-19T05:27:28;12.43;;;11.05;;
53044;SDS011;38930;52.766;6.884;2022-08-19T05:29:54;11.63;;;10.43;;
53044;SDS011;38930;52.766;6.884;2022-08-19T05:32:22;12.45;;;11.13;;
53044;SDS011;38930;52.766;6.884;2022-08-19T05:34:48;16.50;;;12.15;;
53044;SDS011;38930;52.766;6.884;2022-08-19T05:37:14;14.10;;;11.63;;
53044;SDS011;38930;52.766;6.884;2022-08-19T05:39:40;14.30;;;11.77;;
53044;SDS011;38930;52.766;6.884;2022-08-19T05:42:07;15.73;;;12.70;;
53044;SDS011;38930;52.766;6.884;2022-08-19T05:44:35;14.35;;;12.85;;
53044;SDS011;38930;52.766;6.884;2022-08-19T05:47:04;13.98;;;12.50;;
53044;SDS011;38930;52.766;6.884;2022-08-19T05:49:32;17.17;;;14.05;;
53044;SDS011;38930;52.766;6.884;2022-08-19T05:51:58;22.90;;;16.48;;
53044;SDS011;38930;52.766;6.884;2022-08-19T05:54:30;20.23;;;17.02;;
53044;SDS011;38930;52.766;6.884;2022-08-19T05:57:01;20.02;;;16.75;;
53044;SDS011;38930;52.766;6.884;2022-08-19T05:59:27;18.55;;;16.52;;
53044;SDS011;38930;52.766;6.884;2022-08-19T06:01:53;21.03;;;18.20;;
53044;SDS011;38930;52.766;6.884;2022-08-19T06:04:20;20.77;;;17.65;;
53044;SDS011;38930;52.766;6.884;2022-08-19T06:06:47;19.70;;;17.10;;
53044;SDS011;38930;52.766;6.884;2022-08-19T06:09:15;20.27;;;16.55;;
53044;SDS011;38930;52.766;6.884;2022-08-19T06:11:45;19.30;;;17.23;;
53044;SDS011;38930;52.766;6.884;2022-08-19T06:14:13;19.58;;;16.92;;
53044;SDS011;38930;52.766;6.884;2022-08-19T06:16:43;20.75;;;18.00;;
53044;SDS011;38930;52.766;6.884;2022-08-19T06:19:13;20.48;;;18.27;;
53044;SDS011;38930;52.766;6.884;2022-08-19T06:21:41;25.65;;;18.50;;
53044;SDS011;38930;52.766;6.884;2022-08-19T06:24:09;22.35;;;18.27;;
53044;SDS011;38930;52.766;6.884;2022-08-19T06:26:37;19.75;;;17.35;;
53044;SDS011;38930;52.766;6.884;2022-08-19T06:29:06;21.13;;;17.48;;
53044;SDS011;38930;52.766;6.884;2022-08-19T06:31:33;20.83;;;17.30;;
53044;SDS011;38930;52.766;6.884;2022-08-19T06:34:00;20.58;;;16.27;;
53044;SDS011;38930;52.766;6.884;2022-08-19T06:36:33;20.00;;;17.17;;
53044;SDS011;38930;52.766;6.884;2022-08-19T06:39:05;19.77;;;15.45;;
53044;SDS011;38930;52.766;6.884;2022-08-19T06:41:37;17.58;;;15.70;;
53044;SDS011;38930;52.766;6.884;2022-08-19T06:44:04;16.55;;;14.82;;
53044;SDS011;38930;52.766;6.884;2022-08-19T06:46:31;17.27;;;15.25;;
53044;SDS011;38930;52.766;6.884;2022-08-19T06:48:57;16.90;;;15.10;;
53044;SDS011;38930;52.766;6.884;2022-08-19T06:51:24;15.63;;;14.02;;
53044;SDS011;38930;52.766;6.884;2022-08-19T06:53:50;17.00;;;13.90;;
53044;SDS011;38930;52.766;6.884;2022-08-19T06:56:19;15.80;;;13.20;;
53044;SDS011;38930;52.766;6.884;2022-08-19T06:58:53;14.88;;;12.82;;
53044;SDS011;38930;52.766;6.884;2022-08-19T07:01:19;16.55;;;13.27;;
53044;SDS011;38930;52.766;6.884;2022-08-19T07:03:45;15.07;;;13.07;;
53044;SDS011;38930;52.766;6.884;2022-08-19T07:06:17;14.13;;;12.70;;
53044;SDS011;38930;52.766;6.884;2022-08-19T07:08:48;13.57;;;11.68;;
53044;SDS011;38930;52.766;6.884;2022-08-19T07:11:15;14.93;;;12.33;;
53044;SDS011;38930;52.766;6.884;2022-08-19T07:13:46;13.27;;;11.63;;
53044;SDS011;38930;52.766;6.884;2022-08-19T07:16:14;12.45;;;11.25;;
53044;SDS011;38930;52.766;6.884;2022-08-19T07:18:42;12.52;;;11.20;;
53044;SDS011;38930;52.766;6.884;2022-08-19T07:21:20;14.00;;;12.13;;
53044;SDS011;38930;52.766;6.884;2022-08-19T07:23:48;13.40;;;11.57;;
53044;SDS011;38930;52.766;6.884;2022-08-19T07:26:15;13.73;;;11.75;;
53044;SDS011;38930;52.766;6.884;2022-08-19T07:28:43;12.38;;;11.18;;
53044;SDS011;38930;52.766;6.884;2022-08-19T07:31:13;11.50;;;10.35;;
53044;SDS011;38930;52.766;6.884;2022-08-19T07:33:42;14.18;;;12.50;;
53044;SDS011;38930;52.766;6.884;2022-08-19T07:36:08;14.02;;;12.00;;
53044;SDS011;38930;52.766;6.884;2022-08-19T07:38:37;12.35;;;10.27;;
53044;SDS011;38930;52.766;6.884;2022-08-19T07:41:05;13.25;;;11.63;;
53044;SDS011;38930;52.766;6.884;2022-08-19T07:43:32;12.82;;;11.18;;
53044;SDS011;38930;52.766;6.884;2022-08-19T07:45:58;12.48;;;11.18;;
53044;SDS011;38930;52.766;6.884;2022-08-19T07:48:24;13.00;;;11.63;;
53044;SDS011;38930;52.766;6.884;2022-08-19T07:50:55;13.05;;;11.75;;
53044;SDS011;38930;52.766;6.884;2022-08-19T07:53:22;12.27;;;10.98;;
53044;SDS011;38930;52.766;6.884;2022-08-19T07:55:49;12.63;;;11.32;;
53044;SDS011;38930;52.766;6.884;2022-08-19T07:58:16;13.55;;;11.07;;
53044;SDS011;38930;52.766;6.884;2022-08-19T08:00:44;13.15;;;11.57;;
53044;SDS011;38930;52.766;6.884;2022-08-19T08:03:12;13.13;;;11.75;;
53044;SDS011;38930;52.766;6.884;2022-08-19T08:05:39;13.82;;;12.05;;
53044;SDS011;38930;52.766;6.884;2022-08-19T08:08:23;14.00;;;12.18;;
53044;SDS011;38930;52.766;6.884;2022-08-19T08:11:04;11.68;;;10.48;;
53044;SDS011;38930;52.766;6.884;2022-08-19T08:13:30;11.27;;;10.17;;
53044;SDS011;38930;52.766;6.884;2022-08-19T08:15:58;10.75;;;9.07;;
53044;SDS011;38930;52.766;6.884;2022-08-19T08:18:24;11.27;;;10.10;;
53044;SDS011;38930;52.766;6.884;2022-08-19T08:20:50;12.68;;;9.80;;
53044;SDS011;38930;52.766;6.884;2022-08-19T08:23:15;10.40;;;9.30;;
53044;SDS011;38930;52.766;6.884;2022-08-19T08:25:47;10.57;;;9.48;;
53044;SDS011;38930;52.766;6.884;2022-08-19T08:28:13;10.60;;;9.50;;
53044;SDS011;38930;52.766;6.884;2022-08-19T08:30:40;9.85;;;8.35;;
53044;SDS011;38930;52.766;6.884;2022-08-19T08:33:08;11.50;;;10.23;;
53044;SDS011;38930;52.766;6.884;2022-08-19T08:35:34;11.25;;;10.10;;
53044;SDS011;38930;52.766;6.884;2022-08-19T08:38:01;10.80;;;9.65;;
53044;SDS011;38930;52.766;6.884;2022-08-19T08:51:02;14.00;;;12.55;;
53044;SDS011;38930;52.766;6.884;2022-08-19T08:53:32;15.05;;;12.27;;
53044;SDS011;38930;52.766;6.884;2022-08-19T08:56:01;14.98;;;12.68;;
53044;SDS011;38930;52.766;6.884;2022-08-19T08:58:39;14.85;;;12.90;;
53044;SDS011;38930;52.766;6.884;2022-08-19T09:01:28;12.43;;;11.13;;
53044;SDS011;38930;52.766;6.884;2022-08-19T09:03:54;11.93;;;10.83;;
53044;SDS011;38930;52.766;6.884;2022-08-19T09:09:05;14.35;;;12.85;;
53044;SDS011;38930;52.766;6.884;2022-08-19T09:14:39;11.93;;;10.73;;
53044;SDS011;38930;52.766;6.884;2022-08-19T09:17:17;11.20;;;10.10;;
53044;SDS011;38930;52.766;6.884;2022-08-19T09:22:16;10.85;;;9.75;;
53044;SDS011;38930;52.766;6.884;2022-08-19T09:24:43;9.57;;;8.48;;
53044;SDS011;38930;52.766;6.884;2022-08-19T09:27:08;8.43;;;7.70;;
53044;SDS011;38930;52.766;6.884;2022-08-19T09:29:34;9.23;;;8.37;;
53044;SDS011;38930;52.766;6.884;2022-08-19T09:31:59;10.87;;;9.67;;
53044;SDS011;38930;52.766;6.884;2022-08-19T09:34:25;9.83;;;8.60;;
53044;SDS011;38930;52.766;6.884;2022-08-19T09:36:51;10.33;;;7.80;;
53044;SDS011;38930;52.766;6.884;2022-08-19T09:39:18;10.27;;;8.50;;
53044;SDS011;38930;52.766;6.884;2022-08-19T09:41:43;9.83;;;7.60;;
53044;SDS011;38930;52.766;6.884;2022-08-19T09:44:09;9.10;;;7.73;;
53044;SDS011;38930;52.766;6.884;2022-08-19T09:46:36;9.02;;;7.35;;
53044;SDS011;38930;52.766;6.884;2022-08-19T09:49:02;10.33;;;7.57;;
53044;SDS011;38930;52.766;6.884;2022-08-19T09:51:29;8.07;;;7.28;;
53044;SDS011;38930;52.766;6.884;2022-08-19T09:53:55;7.73;;;5.87;;
53044;SDS011;38930;52.766;6.884;2022-08-19T09:56:24;8.55;;;7.60;;
53044;SDS011;38930;52.766;6.884;2022-08-19T09:58:50;6.70;;;5.77;;
53044;SDS011;38930;52.766;6.884;2022-08-19T10:01:17;7.60;;;6.90;;
53044;SDS011;38930;52.766;6.884;2022-08-19T10:03:47;7.28;;;6.57;;
53044;SDS011;38930;52.766;6.884;2022-08-19T10:06:14;8.35;;;6.38;;
53044;SDS011;38930;52.766;6.884;2022-08-19T10:11:06;6.57;;;5.82;;
53044;SDS011;38930;52.766;6.884;2022-08-19T10:13:33;9.27;;;7.45;;
53044;SDS011;38930;52.766;6.884;2022-08-19T10:16:10;9.73;;;7.38;;
53044;SDS011;38930;52.766;6.884;2022-08-19T10:18:38;10.02;;;8.98;;
53044;SDS011;38930;52.766;6.884;2022-08-19T10:21:11;11.30;;;10.10;;
53044;SDS011;38930;52.766;6.884;2022-08-19T10:23:40;9.48;;;7.97;;
53044;SDS011;38930;52.766;6.884;2022-08-19T10:26:10;10.52;;;6.30;;
53044;SDS011;38930;52.766;6.884;2022-08-19T10:28:37;10.02;;;7.18;;
53044;SDS011;38930;52.766;6.884;2022-08-19T10:31:04;7.00;;;6.30;;
53044;SDS011;38930;52.766;6.884;2022-08-19T10:33:35;7.90;;;6.57;;
53044;SDS011;38930;52.766;6.884;2022-08-19T10:36:03;8.05;;;7.05;;
53044;SDS011;38930;52.766;6.884;2022-08-19T10:38:31;8.52;;;7.57;;
53044;SDS011;38930;52.766;6.884;2022-08-19T10:40:56;7.33;;;5.83;;
53044;SDS011;38930;52.766;6.884;2022-08-19T10:43:22;8.00;;;5.93;;
53044;SDS011;38930;52.766;6.884;2022-08-19T10:45:53;7.30;;;5.95;;
53044;SDS011;38930;52.766;6.884;2022-08-19T10:48:23;5.85;;;5.25;;
53044;SDS011;38930;52.766;6.884;2022-08-19T10:50:48;8.27;;;6.23;;
53044;SDS011;38930;52.766;6.884;2022-08-19T10:53:32;8.98;;;7.80;;
53044;SDS011;38930;52.766;6.884;2022-08-19T10:55:58;9.10;;;6.53;;
53044;SDS011;38930;52.766;6.884;2022-08-19T10:58:42;8.18;;;5.38;;
53044;SDS011;38930;52.766;6.884;2022-08-19T11:01:09;7.70;;;4.78;;
53044;SDS011;38930;52.766;6.884;2022-08-19T11:03:35;6.77;;;5.17;;
53044;SDS011;38930;52.766;6.884;2022-08-19T11:06:02;9.67;;;8.73;;
53044;SDS011;38930;52.766;6.884;2022-08-19T11:08:29;9.02;;;6.68;;
53044;SDS011;38930;52.766;6.884;2022-08-19T11:10:55;8.02;;;6.50;;
53044;SDS011;38930;52.766;6.884;2022-08-19T11:13:26;7.45;;;6.70;;
53044;SDS011;38930;52.766;6.884;2022-08-19T11:16:12;7.43;;;6.38;;
53044;SDS011;38930;52.766;6.884;2022-08-19T11:18:43;8.10;;;6.37;;
53044;SDS011;38930;52.766;6.884;2022-08-19T11:21:19;7.97;;;6.13;;
53044;SDS011;38930;52.766;6.884;2022-08-19T11:23:48;8.18;;;5.85;;
53044;SDS011;38930;52.766;6.884;2022-08-19T11:26:16;8.48;;;6.60;;
53044;SDS011;38930;52.766;6.884;2022-08-19T11:28:43;5.60;;;5.00;;
53044;SDS011;38930;52.766;6.884;2022-08-19T11:31:13;8.32;;;6.50;;
53044;SDS011;38930;52.766;6.884;2022-08-19T11:33:41;7.07;;;5.22;;
53044;SDS011;38930;52.766;6.884;2022-08-19T11:36:08;6.55;;;5.72;;
53044;SDS011;38930;52.766;6.884;2022-08-19T11:38:34;6.68;;;5.20;;
53044;SDS011;38930;52.766;6.884;2022-08-19T11:41:02;7.47;;;6.35;;
53044;SDS011;38930;52.766;6.884;2022-08-19T11:43:30;5.75;;;5.25;;
53044;SDS011;38930;52.766;6.884;2022-08-19T11:45:57;7.97;;;6.90;;
53044;SDS011;38930;52.766;6.884;2022-08-19T11:48:23;6.05;;;5.00;;
53044;SDS011;38930;52.766;6.884;2022-08-19T11:50:50;7.60;;;6.80;;
53044;SDS011;38930;52.766;6.884;2022-08-19T11:53:18;5.80;;;5.20;;
53044;SDS011;38930;52.766;6.884;2022-08-19T11:55:45;7.03;;;5.93;;
53044;SDS011;38930;52.766;6.884;2022-08-19T11:58:14;5.75;;;4.72;;
53044;SDS011;38930;52.766;6.884;2022-08-19T12:00:42;6.40;;;5.65;;
53044;SDS011;38930;52.766;6.884;2022-08-19T12:03:10;5.80;;;5.20;;
53044;SDS011;38930;52.766;6.884;2022-08-19T12:05:38;6.43;;;5.22;;
53044;SDS011;38930;52.766;6.884;2022-08-19T12:08:05;7.90;;;5.40;;
53044;SDS011;38930;52.766;6.884;2022-08-19T12:10:32;6.03;;;5.43;;
53044;SDS011;38930;52.766;6.884;2022-08-19T12:12:58;6.05;;;5.15;;
53044;SDS011;38930;52.766;6.884;2022-08-19T12:15:24;6.00;;;5.40;;
53044;SDS011;38930;52.766;6.884;2022-08-19T12:17:52;7.13;;;5.47;;
53044;SDS011;38930;52.766;6.884;2022-08-19T12:20:20;5.95;;;5.28;;
53044;SDS011;38930;52.766;6.884;2022-08-19T12:22:45;8.93;;;5.80;;
53044;SDS011;38930;52.766;6.884;2022-08-19T12:25:11;5.73;;;5.13;;
53044;SDS011;38930;52.766;6.884;2022-08-19T12:27:37;5.72;;;4.97;;
53044;SDS011;38930;52.766;6.884;2022-08-19T12:30:04;5.47;;;4.55;;
53044;SDS011;38930;52.766;6.884;2022-08-19T12:32:31;6.18;;;5.50;;
53044;SDS011;38930;52.766;6.884;2022-08-19T12:34:57;8.30;;;4.80;;
53044;SDS011;38930;52.766;6.884;2022-08-19T12:37:23;5.90;;;5.27;;
53044;SDS011;38930;52.766;6.884;2022-08-19T12:39:49;9.25;;;4.63;;
53044;SDS011;38930;52.766;6.884;2022-08-19T12:42:15;8.00;;;5.40;;
53044;SDS011;38930;52.766;6.884;2022-08-19T12:44:41;5.47;;;4.20;;
53044;SDS011;38930;52.766;6.884;2022-08-19T12:47:08;5.22;;;4.15;;
53044;SDS011;38930;52.766;6.884;2022-08-19T12:49:36;5.32;;;3.60;;
53044;SDS011;38930;52.766;6.884;2022-08-19T12:52:04;5.05;;;3.97;;
53044;SDS011;38930;52.766;6.884;2022-08-19T12:54:32;5.03;;;4.20;;
53044;SDS011;38930;52.766;6.884;2022-08-19T12:56:58;7.28;;;4.78;;
53044;SDS011;38930;52.766;6.884;2022-08-19T13:01:50;6.32;;;4.85;;
53044;SDS011;38930;52.766;6.884;2022-08-19T13:04:16;4.70;;;4.13;;
53044;SDS011;38930;52.766;6.884;2022-08-19T13:06:41;6.55;;;4.22;;
53044;SDS011;38930;52.766;6.884;2022-08-19T13:09:07;6.63;;;4.57;;
53044;SDS011;38930;52.766;6.884;2022-08-19T13:11:34;5.28;;;4.20;;
53044;SDS011;38930;52.766;6.884;2022-08-19T13:14:00;10.48;;;4.38;;
53044;SDS011;38930;52.766;6.884;2022-08-19T13:16:27;7.68;;;4.53;;
53044;SDS011;38930;52.766;6.884;2022-08-19T13:18:54;5.20;;;4.10;;
53044;SDS011;38930;52.766;6.884;2022-08-19T13:21:21;6.97;;;4.45;;
53044;SDS011;38930;52.766;6.884;2022-08-19T13:23:48;5.60;;;4.40;;
53044;SDS011;38930;52.766;6.884;2022-08-19T13:26:14;5.97;;;4.47;;
53044;SDS011;38930;52.766;6.884;2022-08-19T13:28:41;5.85;;;3.80;;
53044;SDS011;38930;52.766;6.884;2022-08-19T13:31:27;4.85;;;3.65;;
53044;SDS011;38930;52.766;6.884;2022-08-19T13:34:13;5.07;;;4.07;;
53044;SDS011;38930;52.766;6.884;2022-08-19T13:36:40;3.83;;;3.42;;
53044;SDS011;38930;52.766;6.884;2022-08-19T13:39:06;4.70;;;3.75;;
53044;SDS011;38930;52.766;6.884;2022-08-19T13:41:33;4.93;;;3.60;;
53044;SDS011;38930;52.766;6.884;2022-08-19T13:43:59;3.92;;;3.28;;
53044;SDS011;38930;52.766;6.884;2022-08-19T13:46:26;3.63;;;3.03;;
53044;SDS011;38930;52.766;6.884;2022-08-19T13:48:55;3.90;;;2.60;;
53044;SDS011;38930;52.766;6.884;2022-08-19T13:53:46;6.63;;;3.50;;
53044;SDS011;38930;52.766;6.884;2022-08-19T13:56:13;4.17;;;3.40;;
53044;SDS011;38930;52.766;6.884;2022-08-19T13:58:41;5.03;;;3.83;;
53044;SDS011;38930;52.766;6.884;2022-08-19T14:01:06;5.18;;;4.03;;
53044;SDS011;38930;52.766;6.884;2022-08-19T14:03:32;5.85;;;4.40;;
53044;SDS011;38930;52.766;6.884;2022-08-19T14:05:59;5.60;;;3.65;;
53044;SDS011;38930;52.766;6.884;2022-08-19T14:08:25;4.45;;;3.35;;
53044;SDS011;38930;52.766;6.884;2022-08-19T14:10:52;5.18;;;3.33;;
53044;SDS011;38930;52.766;6.884;2022-08-19T14:13:22;4.90;;;3.45;;
53044;SDS011;38930;52.766;6.884;2022-08-19T14:15:48;4.47;;;2.90;;
53044;SDS011;38930;52.766;6.884;2022-08-19T14:18:15;4.45;;;3.70;;
53044;SDS011;38930;52.766;6.884;2022-08-19T14:20:43;4.40;;;3.80;;
53044;SDS011;38930;52.766;6.884;2022-08-19T14:23:09;7.57;;;3.42;;
53044;SDS011;38930;52.766;6.884;2022-08-19T14:25:35;5.85;;;5.13;;
53044;SDS011;38930;52.766;6.884;2022-08-19T14:28:01;5.32;;;4.60;;
53044;SDS011;38930;52.766;6.884;2022-08-19T14:30:27;5.10;;;3.90;;
53044;SDS011;38930;52.766;6.884;2022-08-19T14:32:58;5.47;;;4.00;;
53044;SDS011;38930;52.766;6.884;2022-08-19T14:35:26;3.78;;;3.40;;
53044;SDS011;38930;52.766;6.884;2022-08-19T14:37:53;4.70;;;2.90;;
53044;SDS011;38930;52.766;6.884;2022-08-19T14:40:20;3.30;;;3.00;;
53044;SDS011;38930;52.766;6.884;2022-08-19T14:42:51;4.43;;;3.15;;
53044;SDS011;38930;52.766;6.884;2022-08-19T14:45:20;5.15;;;3.83;;
53044;SDS011;38930;52.766;6.884;2022-08-19T14:47:46;4.60;;;3.58;;
53044;SDS011;38930;52.766;6.884;2022-08-19T14:50:12;6.83;;;4.03;;
53044;SDS011;38930;52.766;6.884;2022-08-19T14:52:38;4.45;;;3.50;;
53044;SDS011;38930;52.766;6.884;2022-08-19T14:55:05;5.50;;;3.50;;
53044;SDS011;38930;52.766;6.884;2022-08-19T14:57:31;5.00;;;3.58;;
53044;SDS011;38930;52.766;6.884;2022-08-19T14:59:56;3.53;;;3.20;;
53044;SDS011;38930;52.766;6.884;2022-08-19T15:02:23;6.28;;;4.10;;
53044;SDS011;38930;52.766;6.884;2022-08-19T15:04:49;5.40;;;4.40;;
53044;SDS011;38930;52.766;6.884;2022-08-19T15:07:30;6.40;;;3.40;;
53044;SDS011;38930;52.766;6.884;2022-08-19T15:10:11;4.55;;;3.38;;
53044;SDS011;38930;52.766;6.884;2022-08-19T15:12:40;4.63;;;3.30;;
53044;SDS011;38930;52.766;6.884;2022-08-19T15:15:08;4.38;;;3.38;;